Flight Track Log - Related Links

Times and Time Zones

All times are in EDT time to prevent confusion due to time zone crossing. See the LXJ342 flight status page for this flight to view local times or setup timezone preferences in your user account.

Time Position Orientation Groundspeed Altitude Reporting Facility
EDT Latitude Longitude Course Direction KTS MPH feet Rate Location/Type
Wed 03:18:43 PM 41.1750 -70.1622 North 212 244 4,000  Level Boston Center
Wed 03:19:43 PM 41.2133 -70.2133 315° West 149 171 4,500 1,500 Climbing Boston Center
Wed 03:20:43 PM 41.2903 -70.1969 North 179 206 7,000 2,600 Climbing Boston Center
Wed 03:21:43 PM 41.3669 -70.1831 North 217 250 9,700 2,850 Climbing Boston Center
Wed 03:22:43 PM 41.4447 -70.2108 345° North 258 297 12,700 3,000 Climbing Boston Center
Wed 03:23:00 PM 41.9050 -70.0333 North  Level FlightAware Approximate
Wed 03:23:43 PM 41.5208 -70.2692 330° Northwest 289 333 15,700  Level Boston Center
Wed 03:24:00 PM 42.0142 -70.0333 North  Level FlightAware Approximate
Wed 03:24:43 PM 41.6033 -70.3331 330° Northwest 311 358 18,100  Level Boston Center
Wed 03:25:43 PM 41.6794 -70.3889 331° Northwest 334 384 20,100 2,000 Climbing Boston Center
Wed 03:26:43 PM 41.7683 -70.4583 330° Northwest 356 410 22,100 2,050 Climbing Boston Center
Wed 03:27:43 PM 41.8633 -70.5361 329° Northwest 380 437 24,200 1,950 Climbing Boston Center
Wed 03:28:43 PM 41.9544 -70.6200 326° Northwest 393 452 26,000 1,550 Climbing Boston Center
Wed 03:29:43 PM 42.0228 -70.7325 309° West 393 452 27,300 1,200 Climbing Boston Center
Wed 03:30:43 PM 42.0956 -70.8706 305° West 407 468 28,400 1,100 Climbing Boston Center
Wed 03:31:43 PM 42.1164 -71.0239 280° West 405 466 29,500 1,150 Climbing Boston Center
Wed 03:32:43 PM 42.1308 -71.1775 277° West 411 473 30,700 1,200 Climbing Boston Center
Wed 03:33:43 PM 42.1450 -71.3314 277° West 411 473 31,900 1,350 Climbing Boston Center
Wed 03:34:43 PM 42.1608 -71.4794 278° West 411 473 33,400 1,300 Climbing Boston Center
Wed 03:35:43 PM 42.1678 -71.5831 275° West 406 467 34,500 1,136 Climbing Boston Center
Wed 03:36:55 PM 42.1881 -71.7844 278° West 401 461 35,900 1,091 Climbing Boston Center
Wed 03:37:55 PM 42.2014 -71.9356 277° West 401 461 36,900 1,000 Climbing Boston Center
Wed 03:38:55 PM 42.2144 -72.0786 277° West 401 461 37,900 1,000 Climbing Boston Center
Wed 03:39:55 PM 42.2272 -72.2242 277° West 401 461 38,900 800 Climbing Boston Center
Wed 03:40:55 PM 42.2378 -72.3392 277° West 395 455 39,500 550 Climbing Boston Center
Wed 03:41:55 PM 42.2525 -72.5075 277° West 389 448 40,000 250 Climbing Boston Center
Wed 03:42:55 PM 42.2628 -72.6533 275° West 389 448 40,000  Level Boston Center
Wed 03:43:55 PM 42.2769 -72.8161 277° West 394 453 40,000  Level Boston Center
Wed 03:44:55 PM 42.2844 -72.9647 274° West 399 459 40,000  Level Boston Center
Wed 03:45:55 PM 42.2756 -73.1106 265° West 399 459 40,000  Level Boston Center
Wed 03:46:55 PM 42.2642 -73.2508 264° West 394 453 40,000  Level Boston Center
Wed 03:47:55 PM 42.2569 -73.3714 265° West 378 435 40,000  Level Boston Center
Wed 03:48:55 PM 42.2453 -73.5058 263° West 366 421 40,000  Level Boston Center
Wed 03:49:55 PM 42.2333 -73.6514 264° West 376 433 40,000  Level Boston Center
Wed 03:50:55 PM 42.2128 -73.8192 261° West 409 471 40,000  Level Boston Center
Wed 03:51:55 PM 42.2006 -73.9647 264° West 409 471 40,000  Level Boston Center
Wed 03:52:55 PM 42.1861 -74.1072 262° West 404 465 40,000  Level Boston Center
Wed 03:53:55 PM 42.1733 -74.2525 263° West 399 459 40,000  Level Boston Center
Wed 03:54:55 PM 42.1647 -74.3953 265° West 394 453 40,000  Level Boston Center
Wed 03:55:55 PM 42.1519 -74.5208 262° West 385 443 40,000  Level Boston Center
Wed 03:56:55 PM 42.1408 -74.6772 265° West 390 449 40,000  Level Boston Center
Wed 03:57:55 PM 42.1314 -74.8225 265° West 390 449 40,000  Level Boston Center
Wed 03:59:07 PM 42.1194 -74.9956 265° West 384 442 40,000  Level Boston Center
Wed 04:00:51 PM 42.1014 -75.2458 265° West 391 450 40,000  Level New York Center
Wed 04:01:52 PM 42.0894 -75.3903 264° West 391 450 40,000  Level New York Center
Wed 04:02:53 PM 42.0797 -75.5322 265° West 391 450 40,000  Level New York Center
Wed 04:03:52 PM 42.0656 -75.6764 263° West 386 444 40,000  Level New York Center
Wed 04:04:52 PM 42.0561 -75.8014 264° West 386 444 40,000  Level New York Center
Wed 04:05:54 PM 42.0461 -75.9375 264° West 386 444 40,000  Level New York Center
Wed 04:06:51 PM 42.0361 -76.0733 264° West 386 444 40,000  Level New York Center
Wed 04:07:52 PM 42.0233 -76.2147 263° West 386 444 40,000  Level New York Center
Wed 04:08:52 PM 42.0125 -76.3617 264° West 392 451 40,000  Level New York Center
Wed 04:09:54 PM 41.9947 -76.5167 261° West 392 451 40,000  Level New York Center
Wed 04:10:52 PM 41.9836 -76.6606 264° West 392 451 40,000  Level New York Center
Wed 04:11:52 PM 41.9703 -76.8019 263° West 392 451 40,000  Level New York Center
Wed 04:13:23 PM 41.9522 -77.0008 263° West 390 449 40,000  Level Cleveland Center
Wed 04:14:23 PM 41.9400 -77.1467 264° West 390 449 40,000  Level Cleveland Center
Wed 04:15:23 PM 41.9253 -77.2925 262° West 395 455 40,000  Level Cleveland Center
Wed 04:16:23 PM 41.9108 -77.4439 263° West 400 460 40,000  Level Cleveland Center
Wed 04:17:23 PM 41.8961 -77.5925 262° West 405 466 40,000  Level Cleveland Center
Wed 04:18:23 PM 41.8811 -77.7383 262° West 405 466 40,000  Level Cleveland Center
Wed 04:19:23 PM 41.8642 -77.9036 262° West 410 472 40,000  Level Cleveland Center
Wed 04:20:23 PM 41.8508 -78.0492 263° West 410 472 40,000  Level Cleveland Center
Wed 04:21:23 PM 41.8353 -78.1975 262° West 410 472 40,000  Level Cleveland Center
Wed 04:22:23 PM 41.8236 -78.3456 264° West 410 472 40,000  Level Cleveland Center
Wed 04:23:23 PM 41.8075 -78.4939 262° West 410 472 40,000  Level Cleveland Center
Wed 04:24:23 PM 41.7914 -78.6392 262° West 410 472 40,000  Level Cleveland Center
Wed 04:25:23 PM 41.7750 -78.7900 262° West 410 472 40,000  Level Cleveland Center
Wed 04:26:23 PM 41.7603 -78.9242 262° West 410 472 40,000  Level Cleveland Center
Wed 04:27:23 PM 41.7436 -79.0747 262° West 410 472 40,000  Level Cleveland Center
Wed 04:28:23 PM 41.7269 -79.2256 262° West 410 472 40,000  Level Cleveland Center
Wed 04:29:23 PM 41.7078 -79.3928 261° West 410 472 40,000  Level Cleveland Center
Wed 04:30:23 PM 41.6925 -79.5347 262° West 416 479 40,000  Level Cleveland Center
Wed 04:31:23 PM 41.6731 -79.6992 261° West 416 479 40,000  Level Cleveland Center
Wed 04:32:23 PM 41.6575 -79.8356 261° West 413 475 40,000  Level Cleveland Center
Wed 04:33:23 PM 41.6394 -79.9969 262° West 407 468 40,000  Level Cleveland Center
Wed 04:34:23 PM 41.6214 -80.1469 261° West 407 468 40,000  Level Cleveland Center
Wed 04:35:23 PM 41.6031 -80.3000 261° West 412 474 40,000  Level Cleveland Center
Wed 04:36:23 PM 41.5825 -80.4472 259° West 412 474 40,000  Level Cleveland Center
Wed 04:37:23 PM 41.5639 -80.5997 261° West 412 474 40,000  Level Cleveland Center
Wed 04:38:23 PM 41.5472 -80.7331 261° West 412 474 40,000  Level Cleveland Center
Wed 04:39:23 PM 41.5281 -80.8856 261° West 412 474 40,000  Level Cleveland Center
Wed 04:40:23 PM 41.5275 -81.0353 270° West 404 465 40,000  Level Cleveland Center
Wed 04:41:23 PM 41.5581 -81.1825 286° West 411 473 40,000  Level Cleveland Center
Wed 04:42:23 PM 41.5886 -81.3300 286° West 416 479 40,000  Level Cleveland Center
Wed 04:43:23 PM 41.6189 -81.4775 285° West 416 479 40,000  Level Cleveland Center
Wed 04:44:23 PM 41.6508 -81.6253 286° West 416 479 40,000  Level Cleveland Center
Wed 04:45:23 PM 41.6828 -81.7758 286° West 416 479 40,000 -100 Level Cleveland Center
Wed 04:46:23 PM 41.7103 -81.9294 284° West 416 479 39,800 -400 Descending Cleveland Center
Wed 04:47:23 PM 41.7417 -82.0803 286° West 416 479 39,200 -600 Descending Cleveland Center
Wed 04:48:23 PM 41.7667 -82.2283 283° West 416 479 38,600 -600 Descending Cleveland Center
Wed 04:49:23 PM 41.8000 -82.3797 287° West 416 479 38,000 -300 Descending Cleveland Center
Wed 04:50:23 PM 41.8456 -82.5203 294° West 416 479 38,000  Level Cleveland Center
Wed 04:51:23 PM 41.9122 -82.6508 304° West 416 479 38,000  Level Cleveland Center
Wed 04:52:23 PM 41.9572 -82.8003 292° West 416 479 38,000  Level Cleveland Center
Wed 04:53:23 PM 41.9981 -82.9497 290° West 427 491 38,000  Level Cleveland Center
Wed 04:54:23 PM 42.0408 -83.0994 291° West 427 491 38,000  Level Cleveland Center
Wed 04:55:23 PM 42.0869 -83.2636 291° West 432 497 38,000  Level Cleveland Center
Wed 04:56:23 PM 42.1314 -83.4139 292° West 432 497 38,000  Level Cleveland Center
Wed 04:57:23 PM 42.1756 -83.5672 291° West 432 497 38,000  Level Cleveland Center
Wed 04:58:23 PM 42.2111 -83.7119 288° West 437 503 38,000  Level Cleveland Center
Wed 04:59:23 PM 42.2589 -83.8742 292° West 442 509 38,000  Level Cleveland Center
Wed 05:00:23 PM 42.3003 -84.0225 291° West 430 495 38,000 -200 Level Cleveland Center
Wed 05:01:23 PM 42.3436 -84.1736 291° West 425 489 37,600 -500 Descending Cleveland Center
Wed 05:02:23 PM 42.3847 -84.3250 290° West 425 489 37,000 -800 Descending Cleveland Center
Wed 05:03:23 PM 42.4256 -84.4794 290° West 432 497 36,000 -500 Descending Cleveland Center
Wed 05:04:23 PM 42.4619 -84.6281 288° West 426 490 36,000  Level Cleveland Center
Wed 05:05:53 PM 42.5378 -84.8347 297° West 431 496 36,000 -449 Level Chicago Center
Wed 05:07:00 PM 42.5337 -84.9945 268° West  Level Estimated
Wed 05:07:57 PM 42.6286 -85.1406 268° West 446 513 34,400  Level Chicago Center
Wed 05:08:59 PM 42.6431 -85.3033 277° West 436 502 32,900 -1,452 Descending Chicago Center
Wed 05:10:01 PM 42.6514 -85.4653 274° West 430 495 31,400 -1,597 Descending Chicago Center
Wed 05:11:03 PM 42.6331 -85.6681 263° West 449 517 29,600 -1,597 Descending Chicago Center
Wed 05:12:05 PM 42.6189 -85.8342 263° West 444 511 28,100 -1,440 Descending Chicago Center
Wed 05:13:08 PM 42.6047 -85.9931 263° West 427 491 26,600 -1,680 Descending Chicago Center
Wed 05:14:10 PM 42.5903 -86.1550 263° West 429 494 24,600 -1,984 Descending Chicago Center
Wed 05:15:12 PM 42.5753 -86.3150 263° West 425 489 22,500 -2,226 Descending Chicago Center
Wed 05:16:14 PM 42.5608 -86.4681 263° West 410 472 20,000 -2,661 Descending Chicago Center
Wed 05:17:16 PM 42.5469 -86.6142 263° West 393 452 17,000 -2,710 Descending Chicago Center
Wed 05:18:18 PM 42.5322 -86.7833 263° West 379 436 14,400 -2,226 Descending Chicago Center
Wed 05:19:20 PM 42.5200 -86.9214 263° West 372 428 12,400 -1,984 Descending Chicago Center
Wed 05:20:22 PM 42.5053 -87.0539 261° West 360 414 10,300 -2,129 Descending Chicago Center
Wed 05:21:24 PM 42.4931 -87.1722 262° West 319 367 8,000 -2,112 Descending Chicago Center
Wed 05:22:27 PM 42.4811 -87.2817 262° West 299 344 5,900 -1,872 Descending Chicago Center
Wed 05:23:29 PM 42.4719 -87.3914 264° West 272 313 4,100 -1,403 Descending Chicago Center
Wed 05:24:31 PM 42.4619 -87.4814 261° West 251 289 3,000 -581 Descending Chicago Center
Wed 05:25:33 PM 42.4533 -87.5606 262° West 211 243 2,900  Descending Chicago Center
Wed 05:26:35 PM 42.4447 -87.6486 262° West 197 227 3,000 -48 Climbing Chicago Center
Wed 05:27:37 PM 42.4283 -87.7211 253° West 207 238 2,800 -290 Descending Chicago Center
Wed 05:28:39 PM 42.3947 -87.7792 232° Southwest 207 238 2,400 -194 Descending Chicago Center
Wed 05:29:41 PM 42.3578 -87.8367 229° Southwest 207 238 2,400 -97 Level Chicago Center
Wed 05:30:43 PM 42.3897 -87.9039 303° West 218 251 2,200 -194 Descending Chicago Center
Wed 05:32:00 PM 42.4167 -87.8667 270° West  Level FlightAware Approximate
Wed 05:39:00 PM 42.4222 -87.8679 270° West  Level Estimated

Login

Don't have an account? Register now (free) for customized features, flight alerts, and more!